sensor_id;sensor_type;location;lat;lon;timestamp;temperature;humidity
26304;DHT22;70693;48.680;8.890;2023-07-20T00:00:48;22.20;99.90
26304;DHT22;70693;48.680;8.890;2023-07-20T00:03:19;22.20;99.90
26304;DHT22;70693;48.680;8.890;2023-07-20T00:05:48;22.20;99.90
26304;DHT22;70693;48.680;8.890;2023-07-20T00:08:15;22.20;99.90
26304;DHT22;70693;48.680;8.890;2023-07-20T00:10:41;22.20;99.90
26304;DHT22;70693;48.680;8.890;2023-07-20T00:13:07;22.20;99.90
26304;DHT22;70693;48.680;8.890;2023-07-20T00:15:32;22.20;99.90
26304;DHT22;70693;48.680;8.890;2023-07-20T00:17:58;22.20;99.90
26304;DHT22;70693;48.680;8.890;2023-07-20T00:20:24;22.20;99.90
26304;DHT22;70693;48.680;8.890;2023-07-20T00:22:51;22.20;99.90
26304;DHT22;70693;48.680;8.890;2023-07-20T00:25:17;22.20;99.90
26304;DHT22;70693;48.680;8.890;2023-07-20T00:27:43;22.20;99.90
26304;DHT22;70693;48.680;8.890;2023-07-20T00:30:09;22.20;99.90
26304;DHT22;70693;48.680;8.890;2023-07-20T00:32:35;22.10;99.90
26304;DHT22;70693;48.680;8.890;2023-07-20T00:35:01;22.20;99.90
26304;DHT22;70693;48.680;8.890;2023-07-20T00:37:26;22.20;99.90
26304;DHT22;70693;48.680;8.890;2023-07-20T00:39:53;22.20;99.90
26304;DHT22;70693;48.680;8.890;2023-07-20T00:42:18;22.20;99.90
26304;DHT22;70693;48.680;8.890;2023-07-20T00:44:44;22.10;99.90
26304;DHT22;70693;48.680;8.890;2023-07-20T00:47:10;22.20;99.90
26304;DHT22;70693;48.680;8.890;2023-07-20T00:49:37;22.20;99.90
26304;DHT22;70693;48.680;8.890;2023-07-20T00:52:03;22.10;99.90
26304;DHT22;70693;48.680;8.890;2023-07-20T00:54:31;22.10;99.90
26304;DHT22;70693;48.680;8.890;2023-07-20T00:56:58;22.20;99.90
26304;DHT22;70693;48.680;8.890;2023-07-20T00:59:25;22.10;99.90
26304;DHT22;70693;48.680;8.890;2023-07-20T01:01:51;22.10;99.90
26304;DHT22;70693;48.680;8.890;2023-07-20T01:04:16;22.10;99.90
26304;DHT22;70693;48.680;8.890;2023-07-20T01:06:53;22.10;99.90
26304;DHT22;70693;48.680;8.890;2023-07-20T01:09:42;22.10;99.90
26304;DHT22;70693;48.680;8.890;2023-07-20T01:12:22;22.10;99.90
26304;DHT22;70693;48.680;8.890;2023-07-20T01:14:51;22.10;99.90
26304;DHT22;70693;48.680;8.890;2023-07-20T01:17:17;22.10;99.90
26304;DHT22;70693;48.680;8.890;2023-07-20T01:19:42;22.10;99.90
26304;DHT22;70693;48.680;8.890;2023-07-20T01:22:38;22.10;99.90
26304;DHT22;70693;48.680;8.890;2023-07-20T01:33:15;22.10;99.90
26304;DHT22;70693;48.680;8.890;2023-07-20T01:35:43;22.10;99.90
26304;DHT22;70693;48.680;8.890;2023-07-20T01:38:11;22.10;99.90
26304;DHT22;70693;48.680;8.890;2023-07-20T01:40:38;22.10;99.90
26304;DHT22;70693;48.680;8.890;2023-07-20T01:43:04;22.10;99.90
26304;DHT22;70693;48.680;8.890;2023-07-20T01:45:30;22.00;99.90
26304;DHT22;70693;48.680;8.890;2023-07-20T01:47:56;22.10;99.90
26304;DHT22;70693;48.680;8.890;2023-07-20T01:50:21;22.00;99.90
26304;DHT22;70693;48.680;8.890;2023-07-20T01:52:47;22.00;99.90
26304;DHT22;70693;48.680;8.890;2023-07-20T01:55:13;22.10;99.90
26304;DHT22;70693;48.680;8.890;2023-07-20T01:57:39;22.00;99.90
26304;DHT22;70693;48.680;8.890;2023-07-20T02:00:05;22.00;99.90
26304;DHT22;70693;48.680;8.890;2023-07-20T02:02:34;22.00;99.90
26304;DHT22;70693;48.680;8.890;2023-07-20T02:04:59;22.00;99.90
26304;DHT22;70693;48.680;8.890;2023-07-20T02:07:25;22.00;99.90
26304;DHT22;70693;48.680;8.890;2023-07-20T02:09:51;22.00;99.90
26304;DHT22;70693;48.680;8.890;2023-07-20T02:12:17;22.00;99.90
26304;DHT22;70693;48.680;8.890;2023-07-20T02:14:42;22.00;99.90
26304;DHT22;70693;48.680;8.890;2023-07-20T02:17:08;22.00;99.90
26304;DHT22;70693;48.680;8.890;2023-07-20T02:19:36;22.00;99.90
26304;DHT22;70693;48.680;8.890;2023-07-20T02:22:02;22.00;99.90
26304;DHT22;70693;48.680;8.890;2023-07-20T02:24:27;22.00;99.90
26304;DHT22;70693;48.680;8.890;2023-07-20T02:26:53;22.00;99.90
26304;DHT22;70693;48.680;8.890;2023-07-20T02:29:19;21.90;99.90
26304;DHT22;70693;48.680;8.890;2023-07-20T02:31:44;21.90;99.90
26304;DHT22;70693;48.680;8.890;2023-07-20T02:34:10;22.00;99.90
26304;DHT22;70693;48.680;8.890;2023-07-20T02:36:36;21.90;99.90
26304;DHT22;70693;48.680;8.890;2023-07-20T02:39:01;22.00;99.90
26304;DHT22;70693;48.680;8.890;2023-07-20T02:41:33;22.00;99.90
26304;DHT22;70693;48.680;8.890;2023-07-20T02:43:59;21.90;99.90
26304;DHT22;70693;48.680;8.890;2023-07-20T02:46:25;22.00;99.90
26304;DHT22;70693;48.680;8.890;2023-07-20T02:48:51;22.00;99.90
26304;DHT22;70693;48.680;8.890;2023-07-20T02:51:16;22.00;99.90
26304;DHT22;70693;48.680;8.890;2023-07-20T02:53:42;22.00;99.90
26304;DHT22;70693;48.680;8.890;2023-07-20T02:56:08;21.90;99.90
26304;DHT22;70693;48.680;8.890;2023-07-20T02:58:34;21.90;99.90
26304;DHT22;70693;48.680;8.890;2023-07-20T03:01:03;21.90;99.90
26304;DHT22;70693;48.680;8.890;2023-07-20T03:03:28;21.90;99.90
26304;DHT22;70693;48.680;8.890;2023-07-20T03:05:54;22.00;99.90
26304;DHT22;70693;48.680;8.890;2023-07-20T03:08:22;21.90;99.90
26304;DHT22;70693;48.680;8.890;2023-07-20T03:10:47;22.00;99.90
26304;DHT22;70693;48.680;8.890;2023-07-20T03:13:13;22.00;99.90
26304;DHT22;70693;48.680;8.890;2023-07-20T03:15:39;21.90;99.90
26304;DHT22;70693;48.680;8.890;2023-07-20T03:18:05;21.90;99.90
26304;DHT22;70693;48.680;8.890;2023-07-20T03:20:31;21.90;99.90
26304;DHT22;70693;48.680;8.890;2023-07-20T03:22:56;21.90;99.90
26304;DHT22;70693;48.680;8.890;2023-07-20T03:25:22;21.90;99.90
26304;DHT22;70693;48.680;8.890;2023-07-20T03:27:48;21.90;99.90
26304;DHT22;70693;48.680;8.890;2023-07-20T03:30:14;21.90;99.90
26304;DHT22;70693;48.680;8.890;2023-07-20T03:32:39;21.90;99.90
26304;DHT22;70693;48.680;8.890;2023-07-20T03:35:05;21.90;99.90
26304;DHT22;70693;48.680;8.890;2023-07-20T03:37:31;21.90;99.90
26304;DHT22;70693;48.680;8.890;2023-07-20T03:39:57;21.90;99.90
26304;DHT22;70693;48.680;8.890;2023-07-20T03:42:23;21.90;99.90
26304;DHT22;70693;48.680;8.890;2023-07-20T03:44:48;21.90;99.90
26304;DHT22;70693;48.680;8.890;2023-07-20T03:47:14;21.90;99.90
26304;DHT22;70693;48.680;8.890;2023-07-20T03:49:40;21.90;99.90
26304;DHT22;70693;48.680;8.890;2023-07-20T03:52:05;21.90;99.90
26304;DHT22;70693;48.680;8.890;2023-07-20T03:54:31;21.80;99.90
26304;DHT22;70693;48.680;8.890;2023-07-20T03:56:57;21.90;99.90
26304;DHT22;70693;48.680;8.890;2023-07-20T03:59:24;21.90;99.90
26304;DHT22;70693;48.680;8.890;2023-07-20T04:01:50;21.80;99.90
26304;DHT22;70693;48.680;8.890;2023-07-20T04:04:16;21.90;99.90
26304;DHT22;70693;48.680;8.890;2023-07-20T04:06:41;21.80;99.90
26304;DHT22;70693;48.680;8.890;2023-07-20T04:09:10;21.90;99.90
26304;DHT22;70693;48.680;8.890;2023-07-20T04:11:36;21.80;99.90
26304;DHT22;70693;48.680;8.890;2023-07-20T04:14:02;21.90;99.90
26304;DHT22;70693;48.680;8.890;2023-07-20T04:16:28;21.90;99.90
26304;DHT22;70693;48.680;8.890;2023-07-20T04:18:56;21.80;99.90
26304;DHT22;70693;48.680;8.890;2023-07-20T04:21:22;21.80;99.90
26304;DHT22;70693;48.680;8.890;2023-07-20T04:23:48;21.80;99.90
26304;DHT22;70693;48.680;8.890;2023-07-20T04:26:14;21.80;99.90
26304;DHT22;70693;48.680;8.890;2023-07-20T04:28:43;21.90;99.90
26304;DHT22;70693;48.680;8.890;2023-07-20T04:31:15;21.80;99.90
26304;DHT22;70693;48.680;8.890;2023-07-20T04:33:41;21.80;99.90
26304;DHT22;70693;48.680;8.890;2023-07-20T04:36:07;21.80;99.90
26304;DHT22;70693;48.680;8.890;2023-07-20T04:38:33;21.80;99.90
26304;DHT22;70693;48.680;8.890;2023-07-20T04:40:59;21.80;99.90
26304;DHT22;70693;48.680;8.890;2023-07-20T04:43:25;21.80;99.90
26304;DHT22;70693;48.680;8.890;2023-07-20T04:45:51;21.80;99.90
26304;DHT22;70693;48.680;8.890;2023-07-20T04:48:17;21.80;99.90
26304;DHT22;70693;48.680;8.890;2023-07-20T04:50:46;21.80;99.90
26304;DHT22;70693;48.680;8.890;2023-07-20T04:53:14;21.80;99.90
26304;DHT22;70693;48.680;8.890;2023-07-20T04:55:40;21.80;99.90
26304;DHT22;70693;48.680;8.890;2023-07-20T04:58:12;21.80;99.90
26304;DHT22;70693;48.680;8.890;2023-07-20T05:00:38;21.80;99.90
26304;DHT22;70693;48.680;8.890;2023-07-20T05:03:03;21.80;99.90
26304;DHT22;70693;48.680;8.890;2023-07-20T05:05:31;21.80;99.90
26304;DHT22;70693;48.680;8.890;2023-07-20T05:07:57;21.80;99.90
26304;DHT22;70693;48.680;8.890;2023-07-20T05:10:23;21.80;99.90
26304;DHT22;70693;48.680;8.890;2023-07-20T05:12:49;21.80;99.90
26304;DHT22;70693;48.680;8.890;2023-07-20T05:15:14;21.80;99.90
26304;DHT22;70693;48.680;8.890;2023-07-20T05:17:40;21.80;99.90
26304;DHT22;70693;48.680;8.890;2023-07-20T05:20:06;21.80;99.90
26304;DHT22;70693;48.680;8.890;2023-07-20T05:22:32;21.80;99.90
26304;DHT22;70693;48.680;8.890;2023-07-20T05:24:59;21.80;99.90
26304;DHT22;70693;48.680;8.890;2023-07-20T05:27:24;21.80;99.90
26304;DHT22;70693;48.680;8.890;2023-07-20T05:29:50;21.80;99.90
26304;DHT22;70693;48.680;8.890;2023-07-20T05:32:16;21.80;99.90
26304;DHT22;70693;48.680;8.890;2023-07-20T05:34:41;21.80;99.90
26304;DHT22;70693;48.680;8.890;2023-07-20T05:37:07;21.80;99.90
26304;DHT22;70693;48.680;8.890;2023-07-20T05:39:33;21.80;99.90
26304;DHT22;70693;48.680;8.890;2023-07-20T05:41:58;21.80;99.90
26304;DHT22;70693;48.680;8.890;2023-07-20T05:44:24;21.80;99.90
26304;DHT22;70693;48.680;8.890;2023-07-20T05:46:50;21.80;99.90
26304;DHT22;70693;48.680;8.890;2023-07-20T05:49:15;21.90;99.90
26304;DHT22;70693;48.680;8.890;2023-07-20T05:51:41;21.80;99.90
26304;DHT22;70693;48.680;8.890;2023-07-20T05:54:06;21.80;99.90
26304;DHT22;70693;48.680;8.890;2023-07-20T05:56:32;21.80;99.90
26304;DHT22;70693;48.680;8.890;2023-07-20T05:58:58;21.80;99.90
26304;DHT22;70693;48.680;8.890;2023-07-20T06:01:23;21.80;99.90
26304;DHT22;70693;48.680;8.890;2023-07-20T06:03:52;21.80;99.90
26304;DHT22;70693;48.680;8.890;2023-07-20T06:06:18;21.80;99.90
26304;DHT22;70693;48.680;8.890;2023-07-20T06:08:44;21.90;99.90
26304;DHT22;70693;48.680;8.890;2023-07-20T06:11:10;21.80;99.90
26304;DHT22;70693;48.680;8.890;2023-07-20T06:13:35;21.80;99.90
26304;DHT22;70693;48.680;8.890;2023-07-20T06:16:01;21.80;99.90
26304;DHT22;70693;48.680;8.890;2023-07-20T06:18:27;21.80;99.90
26304;DHT22;70693;48.680;8.890;2023-07-20T06:20:53;21.80;99.90
26304;DHT22;70693;48.680;8.890;2023-07-20T06:23:19;21.80;99.90
26304;DHT22;70693;48.680;8.890;2023-07-20T06:25:45;21.90;99.90
26304;DHT22;70693;48.680;8.890;2023-07-20T06:28:11;21.80;99.90
26304;DHT22;70693;48.680;8.890;2023-07-20T06:30:37;21.80;99.90
26304;DHT22;70693;48.680;8.890;2023-07-20T06:33:02;21.80;99.90
26304;DHT22;70693;48.680;8.890;2023-07-20T06:35:28;21.80;99.90
26304;DHT22;70693;48.680;8.890;2023-07-20T06:37:53;21.80;99.90
26304;DHT22;70693;48.680;8.890;2023-07-20T06:40:19;21.90;99.90
26304;DHT22;70693;48.680;8.890;2023-07-20T06:42:45;21.90;99.90
26304;DHT22;70693;48.680;8.890;2023-07-20T06:45:10;21.90;99.90
26304;DHT22;70693;48.680;8.890;2023-07-20T06:47:39;21.90;99.90
26304;DHT22;70693;48.680;8.890;2023-07-20T06:50:06;21.90;99.90
26304;DHT22;70693;48.680;8.890;2023-07-20T06:52:32;21.90;99.90
26304;DHT22;70693;48.680;8.890;2023-07-20T06:54:58;21.90;99.90
26304;DHT22;70693;48.680;8.890;2023-07-20T06:57:24;21.80;99.30
26304;DHT22;70693;48.680;8.890;2023-07-20T06:59:50;21.60;99.50
26304;DHT22;70693;48.680;8.890;2023-07-20T07:02:16;21.50;99.70
26304;DHT22;70693;48.680;8.890;2023-07-20T07:04:42;21.50;99.80
26304;DHT22;70693;48.680;8.890;2023-07-20T07:07:08;21.60;99.90
26304;DHT22;70693;48.680;8.890;2023-07-20T07:09:34;21.60;99.90
26304;DHT22;70693;48.680;8.890;2023-07-20T07:12:00;21.70;99.90
26304;DHT22;70693;48.680;8.890;2023-07-20T07:14:26;21.50;99.10
26304;DHT22;70693;48.680;8.890;2023-07-20T07:16:51;21.50;99.50
26304;DHT22;70693;48.680;8.890;2023-07-20T07:19:17;21.60;99.70
26304;DHT22;70693;48.680;8.890;2023-07-20T07:21:42;21.60;99.70
26304;DHT22;70693;48.680;8.890;2023-07-20T07:24:08;21.70;99.80
26304;DHT22;70693;48.680;8.890;2023-07-20T07:26:36;21.70;99.90
26304;DHT22;70693;48.680;8.890;2023-07-20T07:29:02;21.70;99.90
26304;DHT22;70693;48.680;8.890;2023-07-20T07:31:29;21.70;99.90
26304;DHT22;70693;48.680;8.890;2023-07-20T07:33:56;21.70;99.90
26304;DHT22;70693;48.680;8.890;2023-07-20T07:36:22;21.80;99.90
26304;DHT22;70693;48.680;8.890;2023-07-20T07:38:49;21.80;99.90
26304;DHT22;70693;48.680;8.890;2023-07-20T07:41:15;21.80;99.90
26304;DHT22;70693;48.680;8.890;2023-07-20T07:43:41;21.80;99.90
26304;DHT22;70693;48.680;8.890;2023-07-20T07:46:07;21.80;99.90
26304;DHT22;70693;48.680;8.890;2023-07-20T07:48:32;21.80;99.90
26304;DHT22;70693;48.680;8.890;2023-07-20T07:50:58;21.90;99.90
26304;DHT22;70693;48.680;8.890;2023-07-20T07:53:24;21.90;99.90
26304;DHT22;70693;48.680;8.890;2023-07-20T07:55:51;21.90;99.90
26304;DHT22;70693;48.680;8.890;2023-07-20T07:58:17;21.90;99.90
26304;DHT22;70693;48.680;8.890;2023-07-20T08:00:43;21.90;99.90
26304;DHT22;70693;48.680;8.890;2023-07-20T08:03:09;21.90;99.90
26304;DHT22;70693;48.680;8.890;2023-07-20T08:05:35;21.90;99.90
26304;DHT22;70693;48.680;8.890;2023-07-20T08:08:02;21.90;99.90
26304;DHT22;70693;48.680;8.890;2023-07-20T08:10:29;21.90;99.90
26304;DHT22;70693;48.680;8.890;2023-07-20T08:12:55;21.90;99.90
26304;DHT22;70693;48.680;8.890;2023-07-20T08:15:21;21.90;99.90
26304;DHT22;70693;48.680;8.890;2023-07-20T08:17:46;21.90;99.90
26304;DHT22;70693;48.680;8.890;2023-07-20T08:20:14;21.90;99.90
26304;DHT22;70693;48.680;8.890;2023-07-20T08:22:41;22.00;99.90
26304;DHT22;70693;48.680;8.890;2023-07-20T08:25:08;22.00;99.90
26304;DHT22;70693;48.680;8.890;2023-07-20T08:27:34;22.00;99.90
26304;DHT22;70693;48.680;8.890;2023-07-20T08:30:00;21.90;99.90
26304;DHT22;70693;48.680;8.890;2023-07-20T08:32:26;22.00;99.90
26304;DHT22;70693;48.680;8.890;2023-07-20T08:34:52;21.90;99.90
26304;DHT22;70693;48.680;8.890;2023-07-20T08:37:17;22.00;99.90
26304;DHT22;70693;48.680;8.890;2023-07-20T08:39:43;22.00;99.90
26304;DHT22;70693;48.680;8.890;2023-07-20T08:42:09;22.00;99.90
26304;DHT22;70693;48.680;8.890;2023-07-20T08:44:39;22.00;99.90
26304;DHT22;70693;48.680;8.890;2023-07-20T08:47:06;21.90;99.90
26304;DHT22;70693;48.680;8.890;2023-07-20T08:49:34;22.00;99.90
26304;DHT22;70693;48.680;8.890;2023-07-20T08:51:59;22.00;99.90
26304;DHT22;70693;48.680;8.890;2023-07-20T08:54:30;22.00;99.90
26304;DHT22;70693;48.680;8.890;2023-07-20T08:57:03;22.00;99.90
26304;DHT22;70693;48.680;8.890;2023-07-20T08:59:29;22.00;99.90
26304;DHT22;70693;48.680;8.890;2023-07-20T09:01:57;22.00;99.90
26304;DHT22;70693;48.680;8.890;2023-07-20T09:04:23;22.00;99.90
26304;DHT22;70693;48.680;8.890;2023-07-20T09:06:50;22.00;99.90
26304;DHT22;70693;48.680;8.890;2023-07-20T09:09:16;22.00;99.90
26304;DHT22;70693;48.680;8.890;2023-07-20T09:11:42;22.00;99.90
26304;DHT22;70693;48.680;8.890;2023-07-20T09:14:09;22.00;99.90
26304;DHT22;70693;48.680;8.890;2023-07-20T09:16:55;22.00;98.40
26304;DHT22;70693;48.680;8.890;2023-07-20T09:19:22;22.00;97.90
26304;DHT22;70693;48.680;8.890;2023-07-20T09:21:51;21.90;97.80
26304;DHT22;70693;48.680;8.890;2023-07-20T09:24:20;22.00;97.90
26304;DHT22;70693;48.680;8.890;2023-07-20T09:26:47;21.90;98.00
26304;DHT22;70693;48.680;8.890;2023-07-20T09:29:19;22.00;98.30
26304;DHT22;70693;48.680;8.890;2023-07-20T09:32:02;21.90;98.50
26304;DHT22;70693;48.680;8.890;2023-07-20T09:34:31;22.00;98.60
26304;DHT22;70693;48.680;8.890;2023-07-20T09:37:00;22.00;98.70
26304;DHT22;70693;48.680;8.890;2023-07-20T09:39:27;22.00;98.90
26304;DHT22;70693;48.680;8.890;2023-07-20T09:41:52;22.00;99.30
26304;DHT22;70693;48.680;8.890;2023-07-20T09:44:19;22.00;99.00
26304;DHT22;70693;48.680;8.890;2023-07-20T09:46:48;22.00;99.00
26304;DHT22;70693;48.680;8.890;2023-07-20T09:49:14;22.00;99.10
26304;DHT22;70693;48.680;8.890;2023-07-20T09:51:41;22.00;99.00
26304;DHT22;70693;48.680;8.890;2023-07-20T09:54:07;22.00;98.90
26304;DHT22;70693;48.680;8.890;2023-07-20T09:56:34;22.00;98.90
26304;DHT22;70693;48.680;8.890;2023-07-20T09:59:00;22.00;98.90
26304;DHT22;70693;48.680;8.890;2023-07-20T10:01:26;22.00;98.90
26304;DHT22;70693;48.680;8.890;2023-07-20T10:03:54;22.00;98.90
26304;DHT22;70693;48.680;8.890;2023-07-20T10:06:24;22.10;99.00
26304;DHT22;70693;48.680;8.890;2023-07-20T10:08:54;22.10;99.00
26304;DHT22;70693;48.680;8.890;2023-07-20T10:11:22;22.00;99.20
26304;DHT22;70693;48.680;8.890;2023-07-20T10:13:51;22.10;99.30
26304;DHT22;70693;48.680;8.890;2023-07-20T10:16:28;22.00;99.30
26304;DHT22;70693;48.680;8.890;2023-07-20T10:21:46;22.10;99.30
26304;DHT22;70693;48.680;8.890;2023-07-20T10:24:13;22.10;99.20
26304;DHT22;70693;48.680;8.890;2023-07-20T10:26:39;22.10;99.20
26304;DHT22;70693;48.680;8.890;2023-07-20T10:29:05;22.10;99.20
26304;DHT22;70693;48.680;8.890;2023-07-20T10:31:32;22.10;99.20
26304;DHT22;70693;48.680;8.890;2023-07-20T10:33:59;22.10;99.20
26304;DHT22;70693;48.680;8.890;2023-07-20T10:36:28;22.10;99.20
26304;DHT22;70693;48.680;8.890;2023-07-20T10:38:55;22.10;99.30
26304;DHT22;70693;48.680;8.890;2023-07-20T10:41:33;22.10;99.30
26304;DHT22;70693;48.680;8.890;2023-07-20T10:44:08;22.10;99.60
26304;DHT22;70693;48.680;8.890;2023-07-20T10:49:08;22.10;99.20
26304;DHT22;70693;48.680;8.890;2023-07-20T10:51:45;22.10;99.20
26304;DHT22;70693;48.680;8.890;2023-07-20T10:56:41;22.10;99.20
26304;DHT22;70693;48.680;8.890;2023-07-20T10:59:36;22.10;99.30
26304;DHT22;70693;48.680;8.890;2023-07-20T11:02:06;22.10;99.30
26304;DHT22;70693;48.680;8.890;2023-07-20T11:04:39;22.10;99.30
26304;DHT22;70693;48.680;8.890;2023-07-20T11:07:05;22.20;99.40
26304;DHT22;70693;48.680;8.890;2023-07-20T11:09:38;22.10;99.30
26304;DHT22;70693;48.680;8.890;2023-07-20T11:12:11;22.20;99.80
26304;DHT22;70693;48.680;8.890;2023-07-20T11:14:41;22.10;99.40
26304;DHT22;70693;48.680;8.890;2023-07-20T11:17:14;22.20;99.40
26304;DHT22;70693;48.680;8.890;2023-07-20T11:19:40;22.10;99.70
26304;DHT22;70693;48.680;8.890;2023-07-20T11:22:06;22.20;99.30
26304;DHT22;70693;48.680;8.890;2023-07-20T11:24:33;22.20;99.30
26304;DHT22;70693;48.680;8.890;2023-07-20T11:26:59;22.20;99.30
26304;DHT22;70693;48.680;8.890;2023-07-20T11:29:26;22.20;99.30
26304;DHT22;70693;48.680;8.890;2023-07-20T11:31:52;22.20;99.40
26304;DHT22;70693;48.680;8.890;2023-07-20T11:34:20;22.20;99.40
26304;DHT22;70693;48.680;8.890;2023-07-20T11:36:51;22.20;99.30
26304;DHT22;70693;48.680;8.890;2023-07-20T11:39:18;22.20;99.30
26304;DHT22;70693;48.680;8.890;2023-07-20T11:41:54;22.30;99.40
26304;DHT22;70693;48.680;8.890;2023-07-20T11:44:21;22.30;99.40
26304;DHT22;70693;48.680;8.890;2023-07-20T11:47:03;22.20;99.30
26304;DHT22;70693;48.680;8.890;2023-07-20T11:49:30;22.30;99.40
26304;DHT22;70693;48.680;8.890;2023-07-20T11:51:57;22.30;99.40
26304;DHT22;70693;48.680;8.890;2023-07-20T11:54:23;22.30;99.40
26304;DHT22;70693;48.680;8.890;2023-07-20T11:56:54;22.30;99.40
26304;DHT22;70693;48.680;8.890;2023-07-20T11:59:20;22.30;99.40
26304;DHT22;70693;48.680;8.890;2023-07-20T12:01:46;22.20;99.40
26304;DHT22;70693;48.680;8.890;2023-07-20T12:04:12;22.20;99.40
26304;DHT22;70693;48.680;8.890;2023-07-20T12:06:37;22.30;99.40
26304;DHT22;70693;48.680;8.890;2023-07-20T12:09:03;22.30;99.50
26304;DHT22;70693;48.680;8.890;2023-07-20T12:11:36;22.30;99.40
26304;DHT22;70693;48.680;8.890;2023-07-20T12:14:03;22.30;99.40
26304;DHT22;70693;48.680;8.890;2023-07-20T12:16:30;22.30;99.40
26304;DHT22;70693;48.680;8.890;2023-07-20T12:19:16;22.30;99.50
26304;DHT22;70693;48.680;8.890;2023-07-20T12:21:41;22.30;99.80
26304;DHT22;70693;48.680;8.890;2023-07-20T12:24:11;22.30;99.40
26304;DHT22;70693;48.680;8.890;2023-07-20T12:26:37;22.30;99.40
26304;DHT22;70693;48.680;8.890;2023-07-20T12:29:03;22.30;96.80
26304;DHT22;70693;48.680;8.890;2023-07-20T12:31:29;22.30;96.90
26304;DHT22;70693;48.680;8.890;2023-07-20T12:33:56;22.30;97.10
26304;DHT22;70693;48.680;8.890;2023-07-20T12:36:22;22.20;97.20
26304;DHT22;70693;48.680;8.890;2023-07-20T12:38:48;22.30;97.40
26304;DHT22;70693;48.680;8.890;2023-07-20T12:41:14;22.30;97.40
26304;DHT22;70693;48.680;8.890;2023-07-20T12:43:40;22.30;97.30
26304;DHT22;70693;48.680;8.890;2023-07-20T12:46:06;22.30;97.40
26304;DHT22;70693;48.680;8.890;2023-07-20T12:48:32;22.30;97.40
26304;DHT22;70693;48.680;8.890;2023-07-20T12:50:58;22.30;97.50
26304;DHT22;70693;48.680;8.890;2023-07-20T12:53:24;22.30;97.60
26304;DHT22;70693;48.680;8.890;2023-07-20T12:55:49;22.30;97.60
26304;DHT22;70693;48.680;8.890;2023-07-20T12:58:15;22.30;97.70
26304;DHT22;70693;48.680;8.890;2023-07-20T13:00:41;22.30;97.70
26304;DHT22;70693;48.680;8.890;2023-07-20T13:03:07;22.30;97.70
26304;DHT22;70693;48.680;8.890;2023-07-20T13:05:34;22.30;97.80
26304;DHT22;70693;48.680;8.890;2023-07-20T13:08:00;22.30;97.80
26304;DHT22;70693;48.680;8.890;2023-07-20T13:10:27;22.30;97.80
26304;DHT22;70693;48.680;8.890;2023-07-20T13:12:52;22.30;97.80
26304;DHT22;70693;48.680;8.890;2023-07-20T13:15:18;22.30;97.80
26304;DHT22;70693;48.680;8.890;2023-07-20T13:17:44;22.30;97.90
26304;DHT22;70693;48.680;8.890;2023-07-20T13:20:10;22.30;97.90
26304;DHT22;70693;48.680;8.890;2023-07-20T13:22:40;22.30;98.00
26304;DHT22;70693;48.680;8.890;2023-07-20T13:25:07;22.30;98.00
26304;DHT22;70693;48.680;8.890;2023-07-20T13:27:33;22.30;98.00
26304;DHT22;70693;48.680;8.890;2023-07-20T13:30:00;22.40;98.10
26304;DHT22;70693;48.680;8.890;2023-07-20T13:32:26;22.30;98.10
26304;DHT22;70693;48.680;8.890;2023-07-20T13:34:52;22.30;98.10
26304;DHT22;70693;48.680;8.890;2023-07-20T13:37:18;22.30;98.10
26304;DHT22;70693;48.680;8.890;2023-07-20T13:39:44;22.30;98.10
26304;DHT22;70693;48.680;8.890;2023-07-20T13:42:10;22.30;98.10
26304;DHT22;70693;48.680;8.890;2023-07-20T13:44:37;22.30;98.20
26304;DHT22;70693;48.680;8.890;2023-07-20T13:47:03;22.30;98.20
26304;DHT22;70693;48.680;8.890;2023-07-20T13:49:31;22.30;98.20
26304;DHT22;70693;48.680;8.890;2023-07-20T13:51:56;22.30;98.20
26304;DHT22;70693;48.680;8.890;2023-07-20T13:54:25;22.40;98.30
26304;DHT22;70693;48.680;8.890;2023-07-20T13:56:51;22.30;98.20
26304;DHT22;70693;48.680;8.890;2023-07-20T13:59:17;22.30;98.30
26304;DHT22;70693;48.680;8.890;2023-07-20T14:01:43;22.40;98.30
26304;DHT22;70693;48.680;8.890;2023-07-20T14:04:09;22.40;98.40
26304;DHT22;70693;48.680;8.890;2023-07-20T14:06:35;22.30;98.30
26304;DHT22;70693;48.680;8.890;2023-07-20T14:09:01;22.40;98.40
26304;DHT22;70693;48.680;8.890;2023-07-20T14:11:27;22.40;98.40
26304;DHT22;70693;48.680;8.890;2023-07-20T14:13:53;22.40;98.50
26304;DHT22;70693;48.680;8.890;2023-07-20T14:16:22;22.40;98.50
26304;DHT22;70693;48.680;8.890;2023-07-20T14:18:49;22.40;98.50
26304;DHT22;70693;48.680;8.890;2023-07-20T14:21:19;22.40;98.50
26304;DHT22;70693;48.680;8.890;2023-07-20T14:23:46;22.40;98.50
26304;DHT22;70693;48.680;8.890;2023-07-20T14:26:12;22.40;98.50
26304;DHT22;70693;48.680;8.890;2023-07-20T14:28:38;22.40;98.50
26304;DHT22;70693;48.680;8.890;2023-07-20T14:31:04;22.40;98.60
26304;DHT22;70693;48.680;8.890;2023-07-20T14:33:30;22.40;98.60
26304;DHT22;70693;48.680;8.890;2023-07-20T14:35:56;22.40;98.60
26304;DHT22;70693;48.680;8.890;2023-07-20T14:38:21;22.40;98.50
26304;DHT22;70693;48.680;8.890;2023-07-20T14:40:47;22.40;98.60
26304;DHT22;70693;48.680;8.890;2023-07-20T14:43:13;22.40;98.60
26304;DHT22;70693;48.680;8.890;2023-07-20T14:45:40;22.40;98.60
26304;DHT22;70693;48.680;8.890;2023-07-20T14:48:06;22.40;98.60
26304;DHT22;70693;48.680;8.890;2023-07-20T14:50:33;22.40;98.60
26304;DHT22;70693;48.680;8.890;2023-07-20T14:52:58;22.40;98.60
26304;DHT22;70693;48.680;8.890;2023-07-20T14:55:24;22.40;98.60
26304;DHT22;70693;48.680;8.890;2023-07-20T14:57:50;22.40;98.60
26304;DHT22;70693;48.680;8.890;2023-07-20T15:00:17;22.40;98.60
26304;DHT22;70693;48.680;8.890;2023-07-20T15:02:42;22.40;98.60
26304;DHT22;70693;48.680;8.890;2023-07-20T15:05:09;22.40;98.60
26304;DHT22;70693;48.680;8.890;2023-07-20T15:07:36;22.40;98.60
26304;DHT22;70693;48.680;8.890;2023-07-20T15:10:03;22.40;98.70
26304;DHT22;70693;48.680;8.890;2023-07-20T15:12:29;22.40;98.60
26304;DHT22;70693;48.680;8.890;2023-07-20T15:15:07;22.40;98.70
26304;DHT22;70693;48.680;8.890;2023-07-20T15:17:33;22.40;98.60
26304;DHT22;70693;48.680;8.890;2023-07-20T15:20:00;22.40;98.70
26304;DHT22;70693;48.680;8.890;2023-07-20T15:22:26;22.50;98.70
26304;DHT22;70693;48.680;8.890;2023-07-20T15:24:51;22.40;98.70
26304;DHT22;70693;48.680;8.890;2023-07-20T15:27:17;22.50;98.70
26304;DHT22;70693;48.680;8.890;2023-07-20T15:29:43;22.50;98.70
26304;DHT22;70693;48.680;8.890;2023-07-20T15:32:09;22.50;98.70
26304;DHT22;70693;48.680;8.890;2023-07-20T15:34:35;22.40;98.70
26304;DHT22;70693;48.680;8.890;2023-07-20T15:37:01;22.50;98.80
26304;DHT22;70693;48.680;8.890;2023-07-20T15:39:28;22.50;98.80
26304;DHT22;70693;48.680;8.890;2023-07-20T15:41:55;22.40;98.80
26304;DHT22;70693;48.680;8.890;2023-07-20T15:44:21;22.50;98.80